sensor_id;sensor_type;location;lat;lon;timestamp;pressure;altitude;pressure_sealevel;temperature;humidity
47706;BME280;33471;52.104;1.318;2022-09-17T00:02:24;101642.47;;;7.07;56.41
47706;BME280;33471;52.104;1.318;2022-09-17T00:04:51;101639.41;;;6.42;57.67
47706;BME280;33471;52.104;1.318;2022-09-17T00:07:18;101641.32;;;6.96;56.91
47706;BME280;33471;52.104;1.318;2022-09-17T00:09:46;101646.29;;;7.07;55.71
47706;BME280;33471;52.104;1.318;2022-09-17T00:12:13;101651.81;;;6.67;56.61
47706;BME280;33471;52.104;1.318;2022-09-17T00:14:40;101652.22;;;6.50;57.07
47706;BME280;33471;52.104;1.318;2022-09-17T00:17:07;101653.72;;;6.75;56.40
47706;BME280;33471;52.104;1.318;2022-09-17T00:19:34;101648.39;;;6.27;57.69
47706;BME280;33471;52.104;1.318;2022-09-17T00:22:02;101648.06;;;6.20;58.15
47706;BME280;33471;52.104;1.318;2022-09-17T00:24:29;101650.18;;;6.78;57.00
47706;BME280;33471;52.104;1.318;2022-09-17T00:26:56;101648.78;;;6.12;58.55
47706;BME280;33471;52.104;1.318;2022-09-17T00:29:23;101654.60;;;7.25;56.10
47706;BME280;33471;52.104;1.318;2022-09-17T00:31:50;101648.38;;;6.60;57.50
47706;BME280;33471;52.104;1.318;2022-09-17T00:34:17;101648.98;;;6.30;58.51
47706;BME280;33471;52.104;1.318;2022-09-17T00:36:44;101654.57;;;7.03;55.50
47706;BME280;33471;52.104;1.318;2022-09-17T00:39:12;101652.93;;;7.50;54.42
47706;BME280;33471;52.104;1.318;2022-09-17T00:41:39;101651.79;;;6.55;56.23
47706;BME280;33471;52.104;1.318;2022-09-17T00:44:43;101648.93;;;7.29;55.75
47706;BME280;33471;52.104;1.318;2022-09-17T00:47:15;101651.79;;;7.44;55.11
47706;BME280;33471;52.104;1.318;2022-09-17T00:49:43;101651.08;;;7.68;53.65
47706;BME280;33471;52.104;1.318;2022-09-17T00:52:14;101653.91;;;7.18;55.42
47706;BME280;33471;52.104;1.318;2022-09-17T00:54:53;101650.92;;;6.42;55.02
47706;BME280;33471;52.104;1.318;2022-09-17T00:57:22;101647.72;;;7.28;55.37
47706;BME280;33471;52.104;1.318;2022-09-17T00:59:50;101647.63;;;6.60;56.36
47706;BME280;33471;52.104;1.318;2022-09-17T01:02:18;101653.40;;;6.38;57.81
47706;BME280;33471;52.104;1.318;2022-09-17T01:04:45;101657.73;;;5.72;59.24
47706;BME280;33471;52.104;1.318;2022-09-17T01:07:23;101656.05;;;5.64;60.36
47706;BME280;33471;52.104;1.318;2022-09-17T01:09:57;101664.78;;;5.55;59.28
47706;BME280;33471;52.104;1.318;2022-09-17T01:12:41;101667.85;;;5.85;59.76
47706;BME280;33471;52.104;1.318;2022-09-17T01:15:23;101664.51;;;5.40;59.77
47706;BME280;33471;52.104;1.318;2022-09-17T01:18:02;101659.18;;;6.09;59.29
47706;BME280;33471;52.104;1.318;2022-09-17T01:20:57;101671.47;;;5.71;59.24
47706;BME280;33471;52.104;1.318;2022-09-17T01:23:49;101670.92;;;6.94;58.01
47706;BME280;33471;52.104;1.318;2022-09-17T01:26:42;101682.89;;;6.52;58.91
47706;BME280;33471;52.104;1.318;2022-09-17T01:29:21;101684.30;;;6.45;59.52
47706;BME280;33471;52.104;1.318;2022-09-17T01:31:54;101684.11;;;6.23;60.16
47706;BME280;33471;52.104;1.318;2022-09-17T01:34:29;101673.40;;;6.50;60.24
47706;BME280;33471;52.104;1.318;2022-09-17T01:37:03;101673.03;;;7.20;59.22
47706;BME280;33471;52.104;1.318;2022-09-17T01:39:41;101676.10;;;5.78;61.75
47706;BME280;33471;52.104;1.318;2022-09-17T01:42:16;101677.71;;;6.03;61.96
47706;BME280;33471;52.104;1.318;2022-09-17T01:44:54;101675.00;;;6.03;61.05
47706;BME280;33471;52.104;1.318;2022-09-17T01:47:23;101684.10;;;6.60;60.23
47706;BME280;33471;52.104;1.318;2022-09-17T01:49:56;101677.66;;;6.57;60.18
47706;BME280;33471;52.104;1.318;2022-09-17T01:52:27;101674.64;;;7.15;58.30
47706;BME280;33471;52.104;1.318;2022-09-17T01:54:58;101676.56;;;7.05;57.58
47706;BME280;33471;52.104;1.318;2022-09-17T01:57:30;101684.01;;;6.64;58.45
47706;BME280;33471;52.104;1.318;2022-09-17T02:00:03;101685.18;;;7.23;57.62
47706;BME280;33471;52.104;1.318;2022-09-17T02:02:33;101685.16;;;7.64;55.73
47706;BME280;33471;52.104;1.318;2022-09-17T02:05:05;101689.99;;;8.26;53.69
47706;BME280;33471;52.104;1.318;2022-09-17T02:07:39;101688.11;;;6.36;57.83
47706;BME280;33471;52.104;1.318;2022-09-17T02:10:13;101690.33;;;6.51;58.95
47706;BME280;33471;52.104;1.318;2022-09-17T02:12:45;101692.51;;;6.01;58.86
47706;BME280;33471;52.104;1.318;2022-09-17T02:15:19;101698.95;;;5.64;61.02
47706;BME280;33471;52.104;1.318;2022-09-17T02:17:50;101687.83;;;7.01;58.11
47706;BME280;33471;52.104;1.318;2022-09-17T02:20:25;101674.32;;;6.30;58.40
47706;BME280;33471;52.104;1.318;2022-09-17T02:22:56;101672.64;;;6.10;59.18
47706;BME280;33471;52.104;1.318;2022-09-17T02:25:32;101677.32;;;6.68;57.52
47706;BME280;33471;52.104;1.318;2022-09-17T02:28:07;101676.36;;;6.18;59.04
47706;BME280;33471;52.104;1.318;2022-09-17T02:30:38;101673.69;;;6.01;58.24
47706;BME280;33471;52.104;1.318;2022-09-17T02:33:07;101666.78;;;6.11;59.87
47706;BME280;33471;52.104;1.318;2022-09-17T02:35:35;101660.24;;;6.10;58.64
47706;BME280;33471;52.104;1.318;2022-09-17T02:38:02;101667.01;;;6.62;57.54
47706;BME280;33471;52.104;1.318;2022-09-17T02:40:33;101673.31;;;6.20;59.62
47706;BME280;33471;52.104;1.318;2022-09-17T02:43:07;101672.30;;;5.80;60.13
47706;BME280;33471;52.104;1.318;2022-09-17T02:45:47;101668.43;;;4.94;61.50
47706;BME280;33471;52.104;1.318;2022-09-17T02:49:19;101668.85;;;6.09;63.54
47706;BME280;33471;52.104;1.318;2022-09-17T02:51:57;101672.50;;;5.72;61.23
47706;BME280;33471;52.104;1.318;2022-09-17T02:54:31;101668.95;;;5.99;61.00
47706;BME280;33471;52.104;1.318;2022-09-17T02:57:08;101674.84;;;5.68;61.64
47706;BME280;33471;52.104;1.318;2022-09-17T02:59:46;101674.85;;;5.40;61.59
47706;BME280;33471;52.104;1.318;2022-09-17T03:02:21;101675.28;;;5.60;62.77
47706;BME280;33471;52.104;1.318;2022-09-17T03:04:51;101674.02;;;5.69;62.41
47706;BME280;33471;52.104;1.318;2022-09-17T03:07:21;101675.17;;;6.08;61.02
47706;BME280;33471;52.104;1.318;2022-09-17T03:09:48;101672.87;;;6.12;60.08
47706;BME280;33471;52.104;1.318;2022-09-17T03:12:16;101683.33;;;5.58;62.29
47706;BME280;33471;52.104;1.318;2022-09-17T03:14:43;101683.19;;;5.80;61.20
47706;BME280;33471;52.104;1.318;2022-09-17T03:17:11;101677.72;;;6.37;58.94
47706;BME280;33471;52.104;1.318;2022-09-17T03:19:38;101672.82;;;6.44;57.95
47706;BME280;33471;52.104;1.318;2022-09-17T03:22:05;101675.09;;;6.34;59.13
47706;BME280;33471;52.104;1.318;2022-09-17T03:24:33;101673.84;;;5.80;60.95
47706;BME280;33471;52.104;1.318;2022-09-17T03:27:00;101678.99;;;5.13;63.25
47706;BME280;33471;52.104;1.318;2022-09-17T03:29:28;101679.92;;;5.67;61.34
47706;BME280;33471;52.104;1.318;2022-09-17T03:31:55;101682.14;;;5.85;60.80
47706;BME280;33471;52.104;1.318;2022-09-17T03:34:23;101684.50;;;6.20;60.00
47706;BME280;33471;52.104;1.318;2022-09-17T03:36:50;101682.47;;;5.25;62.65
47706;BME280;33471;52.104;1.318;2022-09-17T03:39:17;101679.04;;;6.20;59.79
47706;BME280;33471;52.104;1.318;2022-09-17T03:41:44;101681.64;;;4.81;62.97
47706;BME280;33471;52.104;1.318;2022-09-17T03:44:11;101678.34;;;5.52;62.20
47706;BME280;33471;52.104;1.318;2022-09-17T03:46:39;101679.89;;;4.19;62.67
47706;BME280;33471;52.104;1.318;2022-09-17T03:49:06;101680.07;;;5.74;61.36
47706;BME280;33471;52.104;1.318;2022-09-17T03:51:34;101681.81;;;5.44;60.71
47706;BME280;33471;52.104;1.318;2022-09-17T03:54:01;101679.85;;;5.91;60.56
47706;BME280;33471;52.104;1.318;2022-09-17T03:56:29;101683.82;;;5.25;62.27
47706;BME280;33471;52.104;1.318;2022-09-17T03:58:57;101691.47;;;5.05;62.51
47706;BME280;33471;52.104;1.318;2022-09-17T04:01:24;101691.32;;;5.73;61.11
47706;BME280;33471;52.104;1.318;2022-09-17T04:03:51;101693.48;;;4.62;63.50
47706;BME280;33471;52.104;1.318;2022-09-17T04:06:18;101690.52;;;5.01;62.65
47706;BME280;33471;52.104;1.318;2022-09-17T04:08:45;101691.47;;;4.96;61.20
47706;BME280;33471;52.104;1.318;2022-09-17T04:11:13;101691.66;;;4.85;62.60
47706;BME280;33471;52.104;1.318;2022-09-17T04:13:40;101694.12;;;4.35;63.38
47706;BME280;33471;52.104;1.318;2022-09-17T04:16:07;101694.18;;;4.81;64.30
47706;BME280;33471;52.104;1.318;2022-09-17T04:18:35;101695.80;;;4.81;61.99
47706;BME280;33471;52.104;1.318;2022-09-17T04:21:02;101692.85;;;4.60;63.62
47706;BME280;33471;52.104;1.318;2022-09-17T04:23:29;101694.68;;;4.61;63.46
47706;BME280;33471;52.104;1.318;2022-09-17T04:25:56;101690.07;;;4.83;63.08
47706;BME280;33471;52.104;1.318;2022-09-17T04:28:24;101689.09;;;4.94;63.82
47706;BME280;33471;52.104;1.318;2022-09-17T04:30:51;101687.25;;;4.97;62.85
47706;BME280;33471;52.104;1.318;2022-09-17T04:33:18;101688.99;;;5.03;63.44
47706;BME280;33471;52.104;1.318;2022-09-17T04:35:45;101688.78;;;5.33;61.01
47706;BME280;33471;52.104;1.318;2022-09-17T04:38:12;101692.82;;;5.02;62.13
47706;BME280;33471;52.104;1.318;2022-09-17T04:40:39;101696.10;;;4.37;61.66
47706;BME280;33471;52.104;1.318;2022-09-17T04:43:07;101697.11;;;5.19;61.68
47706;BME280;33471;52.104;1.318;2022-09-17T04:45:35;101697.91;;;4.39;63.72
47706;BME280;33471;52.104;1.318;2022-09-17T04:48:03;101692.54;;;4.28;64.00
47706;BME280;33471;52.104;1.318;2022-09-17T04:50:30;101695.78;;;4.42;65.09
47706;BME280;33471;52.104;1.318;2022-09-17T04:52:57;101691.84;;;4.58;64.91
47706;BME280;33471;52.104;1.318;2022-09-17T04:55:24;101691.26;;;5.70;60.93
47706;BME280;33471;52.104;1.318;2022-09-17T04:57:55;101694.43;;;5.11;62.07
47706;BME280;33471;52.104;1.318;2022-09-17T05:00:23;101691.25;;;4.96;63.97
47706;BME280;33471;52.104;1.318;2022-09-17T05:02:53;101690.35;;;4.61;65.19
47706;BME280;33471;52.104;1.318;2022-09-17T05:05:25;101688.35;;;3.39;63.57
47706;BME280;33471;52.104;1.318;2022-09-17T05:07:53;101690.64;;;4.62;63.76
47706;BME280;33471;52.104;1.318;2022-09-17T05:10:21;101693.09;;;4.86;63.14
47706;BME280;33471;52.104;1.318;2022-09-17T05:12:49;101692.81;;;4.72;62.78
47706;BME280;33471;52.104;1.318;2022-09-17T05:15:17;101697.47;;;4.70;63.37
47706;BME280;33471;52.104;1.318;2022-09-17T05:17:45;101696.34;;;4.24;62.87
47706;BME280;33471;52.104;1.318;2022-09-17T05:20:13;101698.92;;;5.18;61.12
47706;BME280;33471;52.104;1.318;2022-09-17T05:22:42;101695.28;;;5.05;62.00
47706;BME280;33471;52.104;1.318;2022-09-17T05:25:10;101697.62;;;4.62;62.70
47706;BME280;33471;52.104;1.318;2022-09-17T05:27:39;101697.05;;;4.79;63.56
47706;BME280;33471;52.104;1.318;2022-09-17T05:30:08;101701.11;;;4.57;63.46
47706;BME280;33471;52.104;1.318;2022-09-17T05:32:36;101695.99;;;5.35;60.37
47706;BME280;33471;52.104;1.318;2022-09-17T05:35:04;101698.50;;;4.98;61.51
47706;BME280;33471;52.104;1.318;2022-09-17T05:37:32;101701.63;;;5.09;61.29
47706;BME280;33471;52.104;1.318;2022-09-17T05:40:00;101703.53;;;5.36;59.57
47706;BME280;33471;52.104;1.318;2022-09-17T05:42:28;101698.14;;;5.91;58.94
47706;BME280;33471;52.104;1.318;2022-09-17T05:44:55;101702.79;;;4.53;62.94
47706;BME280;33471;52.104;1.318;2022-09-17T05:47:22;101701.93;;;5.10;61.74
47706;BME280;33471;52.104;1.318;2022-09-17T05:49:49;101705.65;;;4.88;61.40
47706;BME280;33471;52.104;1.318;2022-09-17T05:52:16;101700.71;;;5.15;61.28
47706;BME280;33471;52.104;1.318;2022-09-17T05:54:44;101695.06;;;4.54;61.95
47706;BME280;33471;52.104;1.318;2022-09-17T05:57:11;101697.15;;;5.89;60.30
47706;BME280;33471;52.104;1.318;2022-09-17T05:59:38;101699.54;;;4.40;63.53
47706;BME280;33471;52.104;1.318;2022-09-17T06:02:06;101701.74;;;5.01;63.11
47706;BME280;33471;52.104;1.318;2022-09-17T06:04:33;101704.41;;;4.22;64.93
47706;BME280;33471;52.104;1.318;2022-09-17T06:07:03;101701.94;;;4.48;62.85
47706;BME280;33471;52.104;1.318;2022-09-17T06:09:31;101702.93;;;4.74;62.37
47706;BME280;33471;52.104;1.318;2022-09-17T06:11:58;101704.66;;;5.72;59.81
47706;BME280;33471;52.104;1.318;2022-09-17T06:14:25;101701.99;;;5.40;60.51
47706;BME280;33471;52.104;1.318;2022-09-17T06:16:52;101702.94;;;4.92;61.19
47706;BME280;33471;52.104;1.318;2022-09-17T06:19:20;101702.83;;;5.05;62.14
47706;BME280;33471;52.104;1.318;2022-09-17T06:21:47;101711.61;;;4.30;63.82
47706;BME280;33471;52.104;1.318;2022-09-17T06:24:15;101705.65;;;4.91;61.89
47706;BME280;33471;52.104;1.318;2022-09-17T06:26:42;101707.68;;;5.07;60.79
47706;BME280;33471;52.104;1.318;2022-09-17T06:29:09;101708.77;;;5.41;61.21
47706;BME280;33471;52.104;1.318;2022-09-17T06:31:37;101707.44;;;4.81;62.71
47706;BME280;33471;52.104;1.318;2022-09-17T06:34:04;101707.19;;;5.64;60.35
47706;BME280;33471;52.104;1.318;2022-09-17T06:36:32;101710.74;;;5.43;60.61
47706;BME280;33471;52.104;1.318;2022-09-17T06:38:59;101723.74;;;4.81;62.19
47706;BME280;33471;52.104;1.318;2022-09-17T06:41:26;101721.29;;;5.31;61.37
47706;BME280;33471;52.104;1.318;2022-09-17T06:43:53;101722.75;;;5.55;60.23
47706;BME280;33471;52.104;1.318;2022-09-17T06:46:20;101723.80;;;5.30;62.68
47706;BME280;33471;52.104;1.318;2022-09-17T06:48:47;101723.98;;;4.73;62.70
47706;BME280;33471;52.104;1.318;2022-09-17T06:51:15;101724.04;;;4.90;62.60
47706;BME280;33471;52.104;1.318;2022-09-17T06:53:42;101731.22;;;4.73;62.96
47706;BME280;33471;52.104;1.318;2022-09-17T06:56:10;101720.17;;;5.13;63.25
47706;BME280;33471;52.104;1.318;2022-09-17T06:58:38;101727.19;;;5.00;63.58
47706;BME280;33471;52.104;1.318;2022-09-17T07:01:05;101724.34;;;4.97;63.58
47706;BME280;33471;52.104;1.318;2022-09-17T07:03:33;101722.51;;;5.07;62.23
47706;BME280;33471;52.104;1.318;2022-09-17T07:06:00;101725.52;;;5.15;61.25
47706;BME280;33471;52.104;1.318;2022-09-17T07:08:27;101726.46;;;5.96;60.08
47706;BME280;33471;52.104;1.318;2022-09-17T07:10:55;101738.00;;;5.60;59.83
47706;BME280;33471;52.104;1.318;2022-09-17T07:13:27;101732.69;;;5.77;60.43
47706;BME280;33471;52.104;1.318;2022-09-17T07:15:56;101734.16;;;5.73;59.45
47706;BME280;33471;52.104;1.318;2022-09-17T07:18:24;101729.36;;;5.87;59.47
47706;BME280;33471;52.104;1.318;2022-09-17T07:20:52;101736.18;;;6.18;58.53
47706;BME280;33471;52.104;1.318;2022-09-17T07:23:21;101729.34;;;5.99;59.00
47706;BME280;33471;52.104;1.318;2022-09-17T07:25:55;101724.44;;;5.41;60.18
47706;BME280;33471;52.104;1.318;2022-09-17T07:28:24;101727.98;;;5.62;60.53
47706;BME280;33471;52.104;1.318;2022-09-17T07:30:52;101730.37;;;6.18;59.00
47706;BME280;33471;52.104;1.318;2022-09-17T07:33:21;101720.19;;;6.60;58.18
47706;BME280;33471;52.104;1.318;2022-09-17T07:35:52;101721.52;;;6.00;59.36
47706;BME280;33471;52.104;1.318;2022-09-17T07:38:20;101714.35;;;6.67;58.14
47706;BME280;33471;52.104;1.318;2022-09-17T07:40:56;101720.57;;;6.93;56.04
47706;BME280;33471;52.104;1.318;2022-09-17T07:43:24;101721.57;;;6.17;59.15
47706;BME280;33471;52.104;1.318;2022-09-17T07:45:52;101716.21;;;6.10;58.20
47706;BME280;33471;52.104;1.318;2022-09-17T07:48:20;101722.24;;;7.03;56.35
47706;BME280;33471;52.104;1.318;2022-09-17T07:50:47;101712.51;;;6.02;56.89
47706;BME280;33471;52.104;1.318;2022-09-17T07:53:15;101713.33;;;7.14;56.33
47706;BME280;33471;52.104;1.318;2022-09-17T07:55:49;101711.00;;;6.96;55.63
47706;BME280;33471;52.104;1.318;2022-09-17T07:58:17;101718.22;;;7.08;55.58
47706;BME280;33471;52.104;1.318;2022-09-17T08:00:44;101714.29;;;6.73;55.82
47706;BME280;33471;52.104;1.318;2022-09-17T08:03:12;101715.73;;;7.40;55.79
47706;BME280;33471;52.104;1.318;2022-09-17T08:05:40;101715.38;;;6.95;56.05
47706;BME280;33471;52.104;1.318;2022-09-17T08:08:07;101718.43;;;7.65;54.10
47706;BME280;33471;52.104;1.318;2022-09-17T08:10:34;101720.60;;;7.87;53.63
47706;BME280;33471;52.104;1.318;2022-09-17T08:13:01;101718.89;;;7.64;53.93
47706;BME280;33471;52.104;1.318;2022-09-17T08:15:29;101716.71;;;7.68;54.53
47706;BME280;33471;52.104;1.318;2022-09-17T08:17:56;101710.58;;;7.69;53.79
47706;BME280;33471;52.104;1.318;2022-09-17T08:20:23;101712.48;;;7.95;54.69
47706;BME280;33471;52.104;1.318;2022-09-17T08:22:57;101719.36;;;7.60;53.83
47706;BME280;33471;52.104;1.318;2022-09-17T08:25:29;101717.72;;;7.82;53.21
47706;BME280;33471;52.104;1.318;2022-09-17T08:27:56;101722.47;;;7.91;53.26
47706;BME280;33471;52.104;1.318;2022-09-17T08:30:24;101722.30;;;8.17;53.80
47706;BME280;33471;52.104;1.318;2022-09-17T08:32:54;101721.23;;;7.61;54.21
47706;BME280;33471;52.104;1.318;2022-09-17T08:35:23;101722.43;;;7.40;55.57
47706;BME280;33471;52.104;1.318;2022-09-17T08:37:51;101727.28;;;7.58;54.78
47706;BME280;33471;52.104;1.318;2022-09-17T08:40:21;101722.54;;;7.48;55.30
47706;BME280;33471;52.104;1.318;2022-09-17T08:42:53;101726.94;;;7.69;53.80
47706;BME280;33471;52.104;1.318;2022-09-17T08:45:22;101728.32;;;7.67;53.91
47706;BME280;33471;52.104;1.318;2022-09-17T08:47:49;101733.79;;;8.23;53.59
47706;BME280;33471;52.104;1.318;2022-09-17T08:50:25;101735.12;;;8.17;53.16
47706;BME280;33471;52.104;1.318;2022-09-17T08:53:11;101736.78;;;7.77;53.59
47706;BME280;33471;52.104;1.318;2022-09-17T08:55:45;101745.34;;;7.75;53.47
47706;BME280;33471;52.104;1.318;2022-09-17T08:58:28;101740.34;;;8.55;52.20
47706;BME280;33471;52.104;1.318;2022-09-17T09:01:06;101744.93;;;8.44;52.55
47706;BME280;33471;52.104;1.318;2022-09-17T09:03:47;101745.07;;;8.71;51.79
47706;BME280;33471;52.104;1.318;2022-09-17T09:06:23;101736.62;;;9.00;50.39
47706;BME280;33471;52.104;1.318;2022-09-17T09:08:57;101738.57;;;8.34;51.95
47706;BME280;33471;52.104;1.318;2022-09-17T09:11:27;101740.17;;;9.01;51.13
47706;BME280;33471;52.104;1.318;2022-09-17T09:14:02;101731.66;;;9.34;49.63
47706;BME280;33471;52.104;1.318;2022-09-17T09:16:33;101724.31;;;9.47;50.52
47706;BME280;33471;52.104;1.318;2022-09-17T09:19:15;101732.21;;;8.93;51.42
47706;BME280;33471;52.104;1.318;2022-09-17T09:21:50;101734.76;;;8.60;50.58
47706;BME280;33471;52.104;1.318;2022-09-17T09:24:22;101733.60;;;9.16;51.09
47706;BME280;33471;52.104;1.318;2022-09-17T09:26:55;101737.57;;;8.80;50.78
47706;BME280;33471;52.104;1.318;2022-09-17T09:29:37;101732.16;;;10.05;49.26
47706;BME280;33471;52.104;1.318;2022-09-17T09:32:19;101734.17;;;9.83;48.87
47706;BME280;33471;52.104;1.318;2022-09-17T09:34:53;101736.63;;;9.35;49.23
47706;BME280;33471;52.104;1.318;2022-09-17T09:37:23;101741.35;;;9.55;50.04
47706;BME280;33471;52.104;1.318;2022-09-17T09:39:53;101733.78;;;9.79;48.89
47706;BME280;33471;52.104;1.318;2022-09-17T09:42:28;101733.42;;;9.99;48.08
47706;BME280;33471;52.104;1.318;2022-09-17T09:44:57;101734.78;;;10.19;48.38
47706;BME280;33471;52.104;1.318;2022-09-17T09:47:37;101736.24;;;10.19;47.54
47706;BME280;33471;52.104;1.318;2022-09-17T09:50:17;101736.66;;;10.25;46.96
47706;BME280;33471;52.104;1.318;2022-09-17T09:52:58;101740.08;;;9.90;47.52
47706;BME280;33471;52.104;1.318;2022-09-17T09:55:47;101737.15;;;10.13;47.83
47706;BME280;33471;52.104;1.318;2022-09-17T09:58:23;101737.34;;;10.18;47.85
47706;BME280;33471;52.104;1.318;2022-09-17T10:00:55;101731.66;;;10.98;45.31
47706;BME280;33471;52.104;1.318;2022-09-17T10:03:25;101741.51;;;10.49;46.39
47706;BME280;33471;52.104;1.318;2022-09-17T10:05:54;101739.33;;;9.81;47.97
47706;BME280;33471;52.104;1.318;2022-09-17T10:08:23;101752.54;;;10.82;48.29
47706;BME280;33471;52.104;1.318;2022-09-17T10:11:00;101750.01;;;10.14;47.32
47706;BME280;33471;52.104;1.318;2022-09-17T10:13:29;101757.79;;;10.83;47.69
47706;BME280;33471;52.104;1.318;2022-09-17T10:15:56;101752.31;;;11.20;46.35
47706;BME280;33471;52.104;1.318;2022-09-17T10:18:40;101761.98;;;10.69;47.79
47706;BME280;33471;52.104;1.318;2022-09-17T10:21:18;101758.02;;;10.64;48.46
47706;BME280;33471;52.104;1.318;2022-09-17T10:23:46;101752.60;;;11.34;45.36
47706;BME280;33471;52.104;1.318;2022-09-17T10:26:21;101755.18;;;11.26;46.17
47706;BME280;33471;52.104;1.318;2022-09-17T10:28:52;101751.74;;;10.10;47.89
47706;BME280;33471;52.104;1.318;2022-09-17T10:31:21;101752.83;;;10.53;47.43
47706;BME280;33471;52.104;1.318;2022-09-17T10:33:54;101740.41;;;10.71;46.83
47706;BME280;33471;52.104;1.318;2022-09-17T10:36:44;101739.03;;;10.98;46.60
47706;BME280;33471;52.104;1.318;2022-09-17T10:39:30;101737.07;;;11.18;46.50
47706;BME280;33471;52.104;1.318;2022-09-17T10:41:59;101745.65;;;11.40;45.92
47706;BME280;33471;52.104;1.318;2022-09-17T10:44:28;101746.02;;;11.19;45.99
47706;BME280;33471;52.104;1.318;2022-09-17T10:47:03;101734.40;;;11.75;44.71
47706;BME280;33471;52.104;1.318;2022-09-17T10:49:36;101747.27;;;11.45;45.13
47706;BME280;33471;52.104;1.318;2022-09-17T10:52:09;101734.31;;;11.54;45.13
47706;BME280;33471;52.104;1.318;2022-09-17T10:54:58;101737.38;;;10.91;45.71
47706;BME280;33471;52.104;1.318;2022-09-17T10:57:42;101742.84;;;11.71;44.72
47706;BME280;33471;52.104;1.318;2022-09-17T11:00:16;101732.10;;;12.36;42.84
47706;BME280;33471;52.104;1.318;2022-09-17T11:03:05;101734.74;;;12.98;40.95
47706;BME280;33471;52.104;1.318;2022-09-17T11:05:53;101747.55;;;12.78;41.82
47706;BME280;33471;52.104;1.318;2022-09-17T11:08:32;101735.97;;;12.39;43.58
47706;BME280;33471;52.104;1.318;2022-09-17T11:11:05;101746.52;;;12.26;42.65
47706;BME280;33471;52.104;1.318;2022-09-17T11:13:39;101732.97;;;12.20;43.06
47706;BME280;33471;52.104;1.318;2022-09-17T11:16:17;101726.10;;;12.70;43.02
47706;BME280;33471;52.104;1.318;2022-09-17T11:18:53;101725.23;;;12.13;41.28
47706;BME280;33471;52.104;1.318;2022-09-17T11:21:35;101742.12;;;12.38;41.81
47706;BME280;33471;52.104;1.318;2022-09-17T11:24:57;101730.31;;;13.28;40.76
47706;BME280;33471;52.104;1.318;2022-09-17T11:27:39;101733.14;;;13.24;41.10
47706;BME280;33471;52.104;1.318;2022-09-17T11:30:16;101725.85;;;12.94;41.35
47706;BME280;33471;52.104;1.318;2022-09-17T11:32:57;101724.18;;;12.43;41.31
47706;BME280;33471;52.104;1.318;2022-09-17T11:35:31;101722.65;;;12.20;41.18
47706;BME280;33471;52.104;1.318;2022-09-17T11:38:05;101718.51;;;12.42;41.58
47706;BME280;33471;52.104;1.318;2022-09-17T11:40:39;101704.93;;;13.07;41.04
47706;BME280;33471;52.104;1.318;2022-09-17T11:43:16;101713.32;;;12.27;41.96
47706;BME280;33471;52.104;1.318;2022-09-17T11:45:56;101717.53;;;12.44;41.29
47706;BME280;33471;52.104;1.318;2022-09-17T11:48:32;101712.92;;;12.33;41.40
47706;BME280;33471;52.104;1.318;2022-09-17T11:51:11;101701.01;;;12.62;38.64
47706;BME280;33471;52.104;1.318;2022-09-17T11:53:46;101709.16;;;14.25;36.28
47706;BME280;33471;52.104;1.318;2022-09-17T11:56:18;101713.66;;;14.08;37.06
47706;BME280;33471;52.104;1.318;2022-09-17T11:58:50;101704.19;;;13.53;37.93
47706;BME280;33471;52.104;1.318;2022-09-17T12:01:25;101696.43;;;13.27;38.27
47706;BME280;33471;52.104;1.318;2022-09-17T12:03:57;101712.36;;;12.83;39.61
47706;BME280;33471;52.104;1.318;2022-09-17T12:06:35;101697.76;;;12.44;39.22
47706;BME280;33471;52.104;1.318;2022-09-17T12:09:09;101690.60;;;14.28;36.59
47706;BME280;33471;52.104;1.318;2022-09-17T12:11:43;101698.08;;;14.65;36.52
47706;BME280;33471;52.104;1.318;2022-09-17T12:14:17;101723.50;;;13.49;38.11
47706;BME280;33471;52.104;1.318;2022-09-17T12:16:51;101710.23;;;12.90;39.27
47706;BME280;33471;52.104;1.318;2022-09-17T12:19:23;101707.16;;;13.37;37.86
47706;BME280;33471;52.104;1.318;2022-09-17T12:21:55;101708.50;;;13.84;37.36
47706;BME280;33471;52.104;1.318;2022-09-17T12:24:27;101704.35;;;13.66;37.12
47706;BME280;33471;52.104;1.318;2022-09-17T12:27:02;101706.33;;;14.96;34.87
47706;BME280;33471;52.104;1.318;2022-09-17T12:29:43;101717.88;;;15.00;35.60
47706;BME280;33471;52.104;1.318;2022-09-17T12:32:27;101722.10;;;14.05;36.20
47706;BME280;33471;52.104;1.318;2022-09-17T12:34:59;101720.78;;;13.94;35.31
47706;BME280;33471;52.104;1.318;2022-09-17T12:37:36;101719.90;;;14.62;34.75
47706;BME280;33471;52.104;1.318;2022-09-17T12:40:14;101723.48;;;13.90;36.11
47706;BME280;33471;52.104;1.318;2022-09-17T12:42:55;101717.29;;;13.48;37.43
47706;BME280;33471;52.104;1.318;2022-09-17T12:45:36;101726.70;;;14.02;36.65
47706;BME280;33471;52.104;1.318;2022-09-17T12:48:20;101718.44;;;14.10;36.33
47706;BME280;33471;52.104;1.318;2022-09-17T12:51:02;101717.64;;;13.87;35.63
47706;BME280;33471;52.104;1.318;2022-09-17T12:53:38;101714.39;;;15.10;34.59
47706;BME280;33471;52.104;1.318;2022-09-17T12:56:18;101705.87;;;14.75;34.17
47706;BME280;33471;52.104;1.318;2022-09-17T12:59:03;101719.52;;;13.78;36.56
47706;BME280;33471;52.104;1.318;2022-09-17T13:01:37;101709.69;;;13.44;36.65
47706;BME280;33471;52.104;1.318;2022-09-17T13:04:18;101715.08;;;13.22;37.12
47706;BME280;33471;52.104;1.318;2022-09-17T13:07:52;101720.52;;;14.17;37.38
47706;BME280;33471;52.104;1.318;2022-09-17T13:10:55;101715.46;;;13.60;37.52
47706;BME280;33471;52.104;1.318;2022-09-17T13:13:36;101709.68;;;13.71;37.14
47706;BME280;33471;52.104;1.318;2022-09-17T13:16:14;101715.29;;;14.29;36.06
47706;BME280;33471;52.104;1.318;2022-09-17T13:18:52;101710.89;;;14.34;36.19
47706;BME280;33471;52.104;1.318;2022-09-17T13:21:36;101703.33;;;14.67;35.55
47706;BME280;33471;52.104;1.318;2022-09-17T13:24:14;101707.61;;;13.42;36.48
47706;BME280;33471;52.104;1.318;2022-09-17T13:26:41;101719.56;;;14.72;34.57